Time;durP1;ratioP1;P1;durP2;ratioP2;P2;SDS_P1;SDS_P2;PMS_P1;PMS_P2;Temp;Humidity;BMP_temperature;BMP_pressure;BME280_temperature;BME280_humidity;BME280_pressure;Samples;Min_cycle;Max_cycle;Signal;HPM_P1;HPM_P2
2021/03/18 00:01:44;;;;;;;19.33;8.70;;;3.80;99.90;;;;;;6155950;23;20159;-81
2021/03/18 00:04:13;;;;;;;22.47;10.13;;;3.80;99.90;;;;;;6154572;23;20212;-81
2021/03/18 00:06:39;;;;;;;23.50;10.30;;;3.80;99.90;;;;;;6154523;23;20157;-81
2021/03/18 00:09:07;;;;;;;23.53;11.47;;;3.80;99.90;;;;;;6154244;23;20208;-81
2021/03/18 00:11:33;;;;;;;19.37;9.43;;;3.80;99.90;;;;;;6154546;23;20157;-81
2021/03/18 00:13:58;;;;;;;20.77;9.20;;;3.70;99.90;;;;;;6154199;23;20188;-81
2021/03/18 00:16:24;;;;;;;20.60;8.57;;;3.70;99.90;;;;;;6154965;23;20205;-81
2021/03/18 00:18:52;;;;;;;17.30;7.87;;;3.70;99.90;;;;;;6154490;23;20177;-81
2021/03/18 00:21:19;;;;;;;14.90;7.07;;;3.70;99.90;;;;;;6153942;23;20157;-81
2021/03/18 00:23:46;;;;;;;15.30;6.57;;;3.70;99.90;;;;;;6154589;23;20157;-81
2021/03/18 00:26:12;;;;;;;15.43;6.87;;;3.60;99.90;;;;;;6154479;23;20203;-81
2021/03/18 00:28:38;;;;;;;19.40;7.87;;;3.60;99.90;;;;;;6156784;23;20192;-81
2021/03/18 00:31:05;;;;;;;19.10;8.20;;;3.60;99.90;;;;;;6156746;23;20244;-81
2021/03/18 00:33:31;;;;;;;16.83;8.00;;;3.60;99.90;;;;;;6154586;23;20153;-81
2021/03/18 00:35:56;;;;;;;18.03;8.80;;;3.70;99.90;;;;;;6156140;23;20184;-81
2021/03/18 00:38:22;;;;;;;24.57;10.83;;;3.70;99.90;;;;;;6157396;23;20217;-81
2021/03/18 00:40:52;;;;;;;19.47;9.23;;;3.70;99.90;;;;;;6157974;23;20264;-81
2021/03/18 00:43:19;;;;;;;21.57;9.97;;;3.70;99.90;;;;;;6157633;23;20161;-81
2021/03/18 00:45:46;;;;;;;22.47;11.80;;;3.70;99.90;;;;;;6157737;23;20164;-81
2021/03/18 00:48:13;;;;;;;17.87;8.37;;;3.70;99.90;;;;;;6156521;23;20215;-82
2021/03/18 00:50:42;;;;;;;14.13;6.70;;;3.60;99.90;;;;;;6157377;23;20163;-81
2021/03/18 00:53:10;;;;;;;17.37;8.00;;;3.60;99.90;;;;;;6156575;23;20156;-81
2021/03/18 00:55:36;;;;;;;14.37;7.23;;;3.60;99.90;;;;;;6155159;23;20184;-81
2021/03/18 00:58:02;;;;;;;13.17;6.27;;;3.60;99.90;;;;;;6154029;23;20191;-81
2021/03/18 01:00:46;;;;;;;13.53;6.50;;;3.60;99.90;;;;;;6155611;23;20156;-81
2021/03/18 01:03:12;;;;;;;15.63;6.07;;;3.60;99.90;;;;;;6156150;23;20324;-81
2021/03/18 01:06:00;;;;;;;15.57;6.57;;;3.60;99.90;;;;;;6156579;23;20157;-81
2021/03/18 01:08:27;;;;;;;11.47;5.37;;;3.50;99.90;;;;;;6154888;23;20637;-81
2021/03/18 01:10:57;;;;;;;12.17;5.60;;;3.50;99.90;;;;;;6155685;23;20157;-81
2021/03/18 01:13:23;;;;;;;14.33;5.33;;;3.50;99.90;;;;;;6155395;23;20153;-81
2021/03/18 01:15:52;;;;;;;13.40;6.30;;;3.50;99.90;;;;;;6157394;23;20145;-81
2021/03/18 01:18:25;;;;;;;14.33;6.60;;;3.40;99.90;;;;;;6154335;23;20181;-81
2021/03/18 01:20:50;;;;;;;15.07;8.83;;;3.40;99.90;;;;;;6155436;23;20153;-82
2021/03/18 01:23:16;;;;;;;14.73;8.17;;;3.40;99.90;;;;;;6155598;23;20606;-81
2021/03/18 01:25:42;;;;;;;15.70;7.53;;;3.50;99.90;;;;;;6156032;23;20177;-81
2021/03/18 01:28:10;;;;;;;12.90;6.50;;;3.50;99.90;;;;;;6154868;23;20189;-81
2021/03/18 01:30:38;;;;;;;14.20;6.57;;;3.40;99.90;;;;;;6157097;23;20153;-81
2021/03/18 01:33:04;;;;;;;12.33;5.77;;;3.40;99.90;;;;;;6157906;23;20208;-81
2021/03/18 01:35:30;;;;;;;11.90;5.97;;;3.40;99.90;;;;;;6159857;23;20153;-81
2021/03/18 01:37:56;;;;;;;18.77;6.77;;;3.40;99.90;;;;;;6162020;23;20163;-82
2021/03/18 01:40:24;;;;;;;13.83;6.03;;;3.40;99.90;;;;;;6160528;23;20142;-81
2021/03/18 01:42:50;;;;;;;12.67;5.37;;;3.30;99.90;;;;;;6155655;23;20223;-81
2021/03/18 01:45:17;;;;;;;12.80;5.77;;;3.40;99.90;;;;;;6155973;23;20168;-81
2021/03/18 01:47:45;;;;;;;13.03;6.17;;;3.40;99.90;;;;;;6154306;23;20706;-81
2021/03/18 01:50:13;;;;;;;13.67;6.43;;;3.30;99.90;;;;;;6155832;23;20158;-81
2021/03/18 01:52:40;;;;;;;11.93;5.63;;;3.40;99.90;;;;;;6155353;23;20153;-81
2021/03/18 01:55:08;;;;;;;13.00;5.10;;;3.30;99.90;;;;;;6155637;23;20157;-81
2021/03/18 01:57:34;;;;;;;15.80;5.93;;;3.30;99.90;;;;;;6155175;23;20168;-81
2021/03/18 02:00:00;;;;;;;13.47;5.83;;;3.30;99.90;;;;;;6155595;23;20201;-81
2021/03/18 02:02:26;;;;;;;11.77;5.60;;;3.30;99.90;;;;;;6154907;23;20184;-81
2021/03/18 02:04:52;;;;;;;13.67;5.67;;;3.30;99.90;;;;;;6155729;23;20165;-81
2021/03/18 02:07:18;;;;;;;14.87;5.80;;;3.30;99.90;;;;;;6154992;23;20157;-81
2021/03/18 02:09:44;;;;;;;11.03;5.37;;;3.30;99.90;;;;;;6155427;23;20180;-81
2021/03/18 02:12:10;;;;;;;10.60;5.23;;;3.30;99.90;;;;;;6155696;23;20156;-81
2021/03/18 02:14:37;;;;;;;17.47;5.97;;;3.30;99.90;;;;;;6158450;23;20533;-81
2021/03/18 02:17:06;;;;;;;13.57;5.23;;;3.30;99.90;;;;;;6155508;23;20235;-81
2021/03/18 02:19:59;;;;;;;11.00;5.53;;;3.20;99.90;;;;;;6155208;23;20180;-81
2021/03/18 02:22:31;;;;;;;11.77;5.23;;;3.20;99.90;;;;;;6154927;23;20224;-81
2021/03/18 02:25:15;;;;;;;13.30;5.57;;;3.20;99.90;;;;;;6155493;23;20165;-81
2021/03/18 02:28:14;;;;;;;11.43;5.20;;;3.10;99.90;;;;;;6155139;23;20201;-81
2021/03/18 02:31:20;;;;;;;13.37;5.50;;;3.10;99.90;;;;;;6154746;23;20149;-81
2021/03/18 02:34:02;;;;;;;12.67;5.50;;;3.00;99.90;;;;;;6158102;23;20140;-80
2021/03/18 02:36:44;;;;;;;12.40;5.70;;;3.00;99.90;;;;;;6155999;23;20141;-80
2021/03/18 02:39:21;;;;;;;14.83;6.27;;;3.00;99.90;;;;;;6155621;23;20215;-80
2021/03/18 02:41:55;;;;;;;12.33;5.93;;;3.10;99.90;;;;;;6156380;23;20593;-80
2021/03/18 02:44:29;;;;;;;12.53;5.80;;;3.10;99.90;;;;;;6156108;23;20141;-80
2021/03/18 02:47:08;;;;;;;14.77;6.40;;;3.10;99.90;;;;;;6155928;23;20200;-80
2021/03/18 02:49:37;;;;;;;12.83;5.67;;;3.10;99.90;;;;;;6156548;23;20188;-80
2021/03/18 02:52:04;;;;;;;13.53;5.47;;;3.10;99.90;;;;;;6157095;23;20145;-80
2021/03/18 02:54:31;;;;;;;15.13;5.47;;;3.00;99.90;;;;;;6154757;23;20186;-80
2021/03/18 02:57:01;;;;;;;15.13;7.23;;;3.00;99.90;;;;;;6154923;23;20156;-80
2021/03/18 02:59:31;;;;;;;11.23;5.20;;;3.00;99.90;;;;;;6154510;23;20184;-80
2021/03/18 03:02:00;;;;;;;12.53;4.70;;;3.00;99.90;;;;;;6154509;23;20145;-80
2021/03/18 03:04:27;;;;;;;13.10;5.67;;;3.00;99.90;;;;;;6154933;23;20157;-80
2021/03/18 03:06:54;;;;;;;11.20;5.43;;;3.00;99.90;;;;;;6154676;23;20165;-80
2021/03/18 03:09:20;;;;;;;12.07;5.17;;;3.00;99.90;;;;;;6155139;23;20195;-80
2021/03/18 03:11:46;;;;;;;9.80;4.73;;;2.90;99.90;;;;;;6156929;23;20149;-80
2021/03/18 03:14:13;;;;;;;11.03;4.93;;;3.00;99.90;;;;;;6154890;23;20153;-80
2021/03/18 03:16:39;;;;;;;11.83;4.40;;;2.70;99.90;;;;;;6154741;23;20211;-80
2021/03/18 03:19:07;;;;;;;12.97;6.00;;;2.60;99.90;;;;;;6154847;23;20177;-80
2021/03/18 03:21:33;;;;;;;13.40;5.60;;;2.70;99.90;;;;;;6155640;23;20609;-80
2021/03/18 03:24:00;;;;;;;11.80;4.73;;;2.80;99.90;;;;;;6155259;23;20160;-80
2021/03/18 03:26:27;;;;;;;9.57;4.80;;;2.70;99.90;;;;;;6155001;23;20161;-80
2021/03/18 03:28:54;;;;;;;10.10;3.87;;;2.80;99.90;;;;;;6154832;23;20212;-80
2021/03/18 03:31:19;;;;;;;10.60;4.10;;;2.80;99.90;;;;;;6154851;23;20176;-80
2021/03/18 03:33:45;;;;;;;10.07;4.70;;;2.80;99.90;;;;;;6154932;23;20153;-80
2021/03/18 03:36:11;;;;;;;14.20;4.30;;;2.90;99.90;;;;;;6156016;23;20161;-81
2021/03/18 03:38:37;;;;;;;10.63;3.77;;;2.80;99.90;;;;;;6156082;23;20621;-80
2021/03/18 03:41:05;;;;;;;10.63;3.70;;;2.80;99.90;;;;;;6155611;23;20246;-80
2021/03/18 03:43:31;;;;;;;10.67;4.47;;;2.80;99.90;;;;;;6154753;23;20160;-80
2021/03/18 03:45:57;;;;;;;8.40;3.63;;;2.70;99.90;;;;;;6155869;23;20556;-80
2021/03/18 03:48:23;;;;;;;12.17;4.80;;;2.80;99.90;;;;;;6166006;23;20275;-80
2021/03/18 03:50:51;;;;;;;13.43;4.70;;;2.70;99.90;;;;;;6176296;23;20153;-80
2021/03/18 03:53:17;;;;;;;11.43;5.37;;;2.70;99.90;;;;;;6179625;23;20175;-80
2021/03/18 03:55:58;;;;;;;11.43;4.70;;;2.70;99.90;;;;;;6180269;23;20157;-80
2021/03/18 03:58:41;;;;;;;10.17;4.77;;;2.60;99.90;;;;;;6179848;23;20180;-80
2021/03/18 04:01:39;;;;;;;10.33;4.53;;;2.60;99.90;;;;;;6178666;23;20205;-79
2021/03/18 04:04:10;;;;;;;11.57;4.57;;;2.70;99.90;;;;;;6179018;23;20161;-80
2021/03/18 04:06:43;;;;;;;8.77;4.00;;;2.70;99.90;;;;;;6154308;23;20491;-80
2021/03/18 04:09:11;;;;;;;10.93;4.13;;;2.70;99.90;;;;;;6155168;23;20284;-80
2021/03/18 04:11:39;;;;;;;8.17;3.67;;;2.60;99.90;;;;;;6154528;23;20158;-80
2021/03/18 04:14:06;;;;;;;13.77;6.00;;;2.70;99.90;;;;;;6154814;23;20153;-80
2021/03/18 04:16:35;;;;;;;12.73;6.83;;;2.70;99.90;;;;;;6154693;23;20299;-80
2021/03/18 04:19:01;;;;;;;15.50;6.00;;;2.60;99.90;;;;;;6156494;23;20269;-80
2021/03/18 04:21:29;;;;;;;10.97;4.20;;;2.60;99.90;;;;;;6154487;23;20558;-80
2021/03/18 04:23:55;;;;;;;11.43;4.43;;;2.40;99.90;;;;;;6154442;23;20165;-80
2021/03/18 04:26:21;;;;;;;9.43;4.23;;;2.40;99.90;;;;;;6154101;23;20160;-80
2021/03/18 04:28:48;;;;;;;7.50;3.70;;;2.40;99.90;;;;;;6153679;23;20219;-80
2021/03/18 04:31:14;;;;;;;8.13;3.80;;;2.40;99.90;;;;;;6154008;23;20717;-80
2021/03/18 04:33:42;;;;;;;10.37;4.17;;;2.40;99.90;;;;;;6154467;23;20153;-80
2021/03/18 04:36:08;;;;;;;10.20;4.17;;;2.40;99.90;;;;;;6153530;23;20541;-80
2021/03/18 04:38:34;;;;;;;8.67;3.70;;;2.40;99.90;;;;;;6153008;23;20192;-80
2021/03/18 04:41:00;;;;;;;11.00;4.40;;;2.50;99.90;;;;;;6153554;23;20156;-79
2021/03/18 04:43:26;;;;;;;8.70;4.13;;;2.40;99.90;;;;;;6154999;23;20585;-80
2021/03/18 04:45:54;;;;;;;10.13;4.30;;;2.50;99.90;;;;;;6153257;23;20157;-79
2021/03/18 04:48:21;;;;;;;7.67;3.70;;;2.40;99.90;;;;;;6154133;23;20196;-79
2021/03/18 10:22:11;;;;;;;2.27;0.90;;;7.10;99.90;;;;;;6164751;23;20239;-83
2021/03/18 10:24:38;;;;;;;3.67;1.10;;;7.30;99.90;;;;;;6131048;23;20261;-81
2021/03/18 10:27:11;;;;;;;6.37;1.77;;;7.40;99.90;;;;;;6129866;23;20544;-80
2021/03/18 10:29:38;;;;;;;4.03;1.37;;;7.50;99.90;;;;;;6129960;23;20255;-83
2021/03/18 10:32:12;;;;;;;3.63;1.20;;;7.70;99.90;;;;;;6130567;23;20172;-81
2021/03/18 10:34:38;;;;;;;3.67;1.30;;;7.40;99.90;;;;;;6156664;23;20136;-81
2021/03/18 10:37:25;;;;;;;4.20;1.03;;;7.40;99.90;;;;;;6130594;23;20176;-82
2021/03/18 10:43:43;;;;;;;2.57;0.83;;;7.50;99.90;;;;;;6156200;23;20179;-81
2021/03/18 10:46:12;;;;;;;3.17;1.00;;;7.70;99.90;;;;;;6118448;23;20157;-81
2021/03/18 13:30:30;;;;;;;1.20;0.40;;;7.90;94.40;;;;;;6179408;23;20171;-87
2021/03/18 13:33:22;;;;;;;1.27;0.37;;;8.00;90.80;;;;;;6179369;23;20156;-87
2021/03/18 14:23:16;;;;;;;2.63;0.43;;;8.00;92.00;;;;;;6185755;23;20188;-87
2021/03/18 14:25:47;;;;;;;2.20;0.33;;;7.90;92.50;;;;;;6185137;23;20126;-88
2021/03/18 14:28:24;;;;;;;2.87;0.60;;;7.70;90.80;;;;;;6186329;23;20148;-87
2021/03/18 14:30:53;;;;;;;1.43;0.50;;;7.80;92.00;;;;;;6183865;23;20138;-87
2021/03/18 14:33:21;;;;;;;2.40;0.60;;;7.80;92.30;;;;;;6162124;23;20129;-87
2021/03/18 14:35:47;;;;;;;1.37;0.40;;;7.50;91.50;;;;;;6186035;23;20124;-87
2021/03/18 14:38:20;;;;;;;1.17;0.43;;;7.40;92.90;;;;;;6186727;23;20125;-86
2021/03/18 14:40:48;;;;;;;5.33;0.80;;;7.30;95.50;;;;;;6210657;23;20153;-87
2021/03/18 14:46:37;;;;;;;2.07;0.50;;;7.40;92.20;;;;;;6187018;23;20113;-87
2021/03/18 14:49:04;;;;;;;2.30;0.60;;;7.60;92.70;;;;;;6185795;23;20168;-87
2021/03/18 14:51:36;;;;;;;2.33;0.47;;;7.50;91.50;;;;;;6185703;23;20129;-87
2021/03/18 14:54:09;;;;;;;3.17;0.50;;;7.40;94.70;;;;;;6162758;23;20133;-87
2021/03/18 14:56:48;;;;;;;3.10;0.77;;;7.60;93.00;;;;;;6186243;23;20152;-87
2021/03/18 14:59:32;;;;;;;1.93;0.60;;;7.70;92.60;;;;;;6186148;23;20121;-87
2021/03/18 15:02:05;;;;;;;3.43;0.90;;;7.60;92.80;;;;;;6209030;23;20140;-87
2021/03/18 15:04:39;;;;;;;2.10;0.60;;;7.60;93.40;;;;;;6185304;23;20207;-87
2021/03/18 15:07:24;;;;;;;2.77;0.80;;;7.50;91.80;;;;;;6186776;23;20120;-87
2021/03/18 16:01:51;;;;;;;3.17;0.60;;;7.00;94.20;;;;;;6177623;23;20176;-87
2021/03/18 16:04:17;;;;;;;1.73;0.70;;;7.10;94.70;;;;;;6161463;23;20126;-87
2021/03/18 16:06:48;;;;;;;2.67;0.60;;;7.00;95.60;;;;;;6185490;23;20128;-87
2021/03/18 16:09:15;;;;;;;2.03;0.50;;;7.00;96.70;;;;;;6185531;23;20157;-87
2021/03/18 16:11:50;;;;;;;1.80;0.50;;;6.90;95.90;;;;;;6186152;23;20122;-87
2021/03/18 16:14:19;;;;;;;1.60;0.60;;;6.80;96.30;;;;;;6182360;23;20143;-87
2021/03/18 16:19:20;;;;;;;2.07;0.47;;;6.60;94.90;;;;;;6178351;23;20192;-87
2021/03/18 16:58:16;;;;;;;1.53;0.53;;;6.70;99.90;;;;;;6168275;23;20173;-81
2021/03/18 17:00:49;;;;;;;4.93;0.80;;;6.60;99.90;;;;;;6167818;23;20484;-83
2021/03/18 17:13:34;;;;;;;5.77;0.90;;;6.80;99.90;;;;;;6233621;23;20168;-82
2021/03/18 17:16:07;;;;;;;3.80;0.90;;;6.80;99.90;;;;;;6197309;23;20231;-81
2021/03/18 17:18:57;;;;;;;0.87;0.53;;;6.80;99.90;;;;;;6207850;23;20666;-82
2021/03/18 17:21:23;;;;;;;3.10;0.87;;;6.70;99.90;;;;;;6208470;23;20568;-83
2021/03/18 17:24:38;;;;;;;2.20;0.97;;;6.60;99.90;;;;;;6214815;23;20143;-84
2021/03/18 17:37:27;;;;;;;1.73;0.67;;;6.40;99.90;;;;;;6175579;23;20184;-86
2021/03/18 17:39:58;;;;;;;3.37;1.27;;;6.40;99.90;;;;;;6186299;23;20141;-86
2021/03/18 17:42:25;;;;;;;1.57;0.70;;;6.30;99.90;;;;;;6157709;23;20146;-86
2021/03/18 17:44:51;;;;;;;2.63;0.83;;;6.30;99.90;;;;;;6181685;23;20122;-86
2021/03/18 17:47:28;;;;;;;2.57;0.80;;;6.20;99.90;;;;;;6157218;23;20125;-86
2021/03/18 17:49:55;;;;;;;3.33;0.90;;;6.20;99.90;;;;;;6193011;23;20183;-86
2021/03/18 17:52:22;;;;;;;3.13;0.87;;;6.10;99.90;;;;;;6166890;23;20133;-87
2021/03/18 17:54:52;;;;;;;2.30;0.70;;;6.10;99.90;;;;;;6191581;23;20129;-86
2021/03/18 17:57:18;;;;;;;3.57;0.90;;;6.00;99.90;;;;;;6215452;23;20135;-86
2021/03/18 18:00:07;;;;;;;3.27;1.07;;;5.90;99.90;;;;;;6215245;23;20176;-86
2021/03/18 18:02:33;;;;;;;3.57;0.90;;;5.80;99.90;;;;;;6215853;23;20168;-87
2021/03/18 18:04:59;;;;;;;4.83;0.97;;;5.80;99.90;;;;;;6214863;23;20124;-86
2021/03/18 18:07:27;;;;;;;1.70;0.67;;;5.70;99.90;;;;;;6215579;23;20124;-86
2021/03/18 18:09:54;;;;;;;7.07;1.17;;;5.70;99.90;;;;;;6215467;23;20140;-85
2021/03/18 18:12:26;;;;;;;2.40;0.70;;;5.60;99.90;;;;;;6214948;23;20136;-85
2021/03/18 18:14:55;;;;;;;1.20;0.53;;;5.60;99.90;;;;;;6190126;23;20167;-85
2021/03/18 18:25:37;;;;;;;3.90;1.30;;;5.40;99.90;;;;;;6178381;23;20191;-84
2021/03/18 18:28:04;;;;;;;3.83;1.13;;;5.30;99.90;;;;;;6178668;23;20141;-84
2021/03/18 18:33:26;;;;;;;4.23;1.10;;;5.30;99.90;;;;;;6181675;23;20195;-84
2021/03/18 18:35:54;;;;;;;4.53;1.40;;;5.30;99.90;;;;;;6185303;23;20139;-83
2021/03/18 18:38:33;;;;;;;3.77;1.40;;;5.20;99.90;;;;;;6184722;23;20184;-84
2021/03/18 18:41:04;;;;;;;2.93;1.23;;;5.10;99.90;;;;;;6184354;23;20181;-83
2021/03/18 18:43:31;;;;;;;3.80;1.40;;;5.10;99.90;;;;;;6184063;23;20165;-83
2021/03/18 18:48:34;;;;;;;6.50;1.20;;;5.00;99.90;;;;;;6171121;23;20205;-83
2021/03/18 18:51:00;;;;;;;2.40;1.10;;;5.00;99.90;;;;;;6186031;23;20129;-83
2021/03/18 18:53:42;;;;;;;3.00;1.20;;;4.90;99.90;;;;;;6185683;23;20129;-83
2021/03/18 18:56:34;;;;;;;5.65;1.70;;;4.90;99.90;;;;;;6184742;23;20403;-83
2021/03/18 18:59:13;;;;;;;6.13;1.50;;;4.80;99.90;;;;;;6203426;23;20202;-83
2021/03/18 19:15:41;;;;;;;5.97;1.60;;;4.50;99.90;;;;;;6181482;23;20147;-85
2021/03/18 19:26:37;;;;;;;7.97;1.87;;;4.20;99.90;;;;;;6182761;23;20178;-85
2021/03/18 19:29:29;;;;;;;5.10;1.60;;;4.20;99.90;;;;;;6185694;23;20145;-84
2021/03/18 19:32:33;;;;;;;8.40;2.13;;;4.10;99.90;;;;;;6182828;23;20195;-84
2021/03/18 19:35:04;;;;;;;7.23;2.37;;;4.00;99.90;;;;;;6184608;23;20171;-83
2021/03/18 19:51:05;;;;;;;7.07;2.47;;;3.80;99.90;;;;;;6178564;23;20173;-82
2021/03/18 20:15:45;;;;;;;16.27;2.53;;;3.40;99.90;;;;;;6186092;23;20128;-84
2021/03/18 20:18:37;;;;;;;4.57;2.00;;;3.40;99.90;;;;;;6179826;23;20164;-83
2021/03/18 22:18:22;;;;;;;6.60;2.50;;;1.90;99.90;;;;;;6176536;23;20195;-82
2021/03/18 22:20:48;;;;;;;6.70;2.63;;;1.90;99.90;;;;;;6181992;23;20196;-82
2021/03/18 22:23:27;;;;;;;6.97;2.37;;;1.90;99.90;;;;;;6181571;23;20156;-82
2021/03/18 22:31:05;;;;;;;6.80;2.67;;;1.70;99.90;;;;;;6175831;23;20211;-82
2021/03/18 22:33:44;;;;;;;6.47;2.50;;;1.70;99.90;;;;;;6179033;23;20164;-81
2021/03/18 22:36:37;;;;;;;7.50;2.97;;;1.70;99.90;;;;;;6178108;23;20187;-81
2021/03/18 22:45:15;;;;;;;8.47;2.77;;;1.70;99.90;;;;;;6167094;23;20204;-81
2021/03/18 22:47:44;;;;;;;7.43;2.77;;;1.70;99.90;;;;;;6201831;23;20217;-82
2021/03/18 22:50:14;;;;;;;11.77;3.03;;;1.80;99.90;;;;;;6179250;23;20177;-82
2021/03/18 22:52:51;;;;;;;6.53;3.03;;;1.70;99.90;;;;;;6205709;23;20203;-83
2021/03/18 22:55:26;;;;;;;6.47;2.53;;;1.70;99.90;;;;;;6132660;23;20137;-81
2021/03/18 22:58:02;;;;;;;5.53;2.17;;;1.70;99.90;;;;;;6150869;23;20161;-82
